sensor_id;sensor_type;location;lat;lon;timestamp;pressure;altitude;pressure_sealevel;temperature;humidity
39937;BME280;27803;42.740;23.340;2022-12-18T00:01:29;96207.34;;;6.15;100.00
39937;BME280;27803;42.740;23.340;2022-12-18T00:03:57;96230.34;;;6.10;100.00
39937;BME280;27803;42.740;23.340;2022-12-18T00:06:24;96239.09;;;6.09;100.00
39937;BME280;27803;42.740;23.340;2022-12-18T00:08:49;96241.34;;;6.04;100.00
39937;BME280;27803;42.740;23.340;2022-12-18T00:11:18;96239.09;;;6.09;100.00
39937;BME280;27803;42.740;23.340;2022-12-18T00:13:44;96248.69;;;6.09;100.00
39937;BME280;27803;42.740;23.340;2022-12-18T00:16:12;96241.94;;;5.98;100.00
39937;BME280;27803;42.740;23.340;2022-12-18T00:18:38;96243.25;;;6.02;100.00
39937;BME280;27803;42.740;23.340;2022-12-18T00:21:06;96249.03;;;5.96;100.00
39937;BME280;27803;42.740;23.340;2022-12-18T00:23:33;96236.25;;;5.85;100.00
39937;BME280;27803;42.740;23.340;2022-12-18T00:26:03;96256.69;;;5.98;100.00
39937;BME280;27803;42.740;23.340;2022-12-18T00:28:28;96235.50;;;5.75;100.00
39937;BME280;27803;42.740;23.340;2022-12-18T00:31:04;96230.00;;;5.78;100.00
39937;BME280;27803;42.740;23.340;2022-12-18T00:33:31;96239.94;;;5.65;100.00
39937;BME280;27803;42.740;23.340;2022-12-18T00:36:03;96249.44;;;5.74;100.00
39937;BME280;27803;42.740;23.340;2022-12-18T00:38:29;96265.59;;;5.68;100.00
39937;BME280;27803;42.740;23.340;2022-12-18T00:40:55;96265.59;;;5.68;100.00
39937;BME280;27803;42.740;23.340;2022-12-18T00:43:20;96272.41;;;5.69;100.00
39937;BME280;27803;42.740;23.340;2022-12-18T00:45:45;96262.50;;;5.54;100.00
39937;BME280;27803;42.740;23.340;2022-12-18T00:48:11;96279.53;;;5.67;100.00
39937;BME280;27803;42.740;23.340;2022-12-18T00:50:36;96290.47;;;5.61;100.00
39937;BME280;27803;42.740;23.340;2022-12-18T00:53:02;96257.38;;;5.45;100.00
39937;BME280;27803;42.740;23.340;2022-12-18T00:55:27;96289.13;;;5.56;100.00
39937;BME280;27803;42.740;23.340;2022-12-18T00:57:52;96283.13;;;5.56;100.00
39937;BME280;27803;42.740;23.340;2022-12-18T01:00:18;96287.22;;;5.59;100.00
39937;BME280;27803;42.740;23.340;2022-12-18T01:02:44;96279.03;;;5.53;100.00
39937;BME280;27803;42.740;23.340;2022-12-18T01:05:12;96298.94;;;5.63;100.00
39937;BME280;27803;42.740;23.340;2022-12-18T01:07:38;96291.16;;;5.63;100.00
39937;BME280;27803;42.740;23.340;2022-12-18T01:10:05;96286.72;;;5.45;100.00
39937;BME280;27803;42.740;23.340;2022-12-18T01:12:31;96305.28;;;5.50;100.00
39937;BME280;27803;42.740;23.340;2022-12-18T01:14:56;96290.28;;;5.44;100.00
39937;BME280;27803;42.740;23.340;2022-12-18T01:17:22;96296.00;;;5.48;100.00
39937;BME280;27803;42.740;23.340;2022-12-18T01:19:48;96312.09;;;5.51;100.00
39937;BME280;27803;42.740;23.340;2022-12-18T01:22:13;96303.25;;;5.44;100.00
39937;BME280;27803;42.740;23.340;2022-12-18T01:24:39;96322.66;;;5.40;100.00
39937;BME280;27803;42.740;23.340;2022-12-18T01:27:04;96333.69;;;5.42;100.00
39937;BME280;27803;42.740;23.340;2022-12-18T01:29:29;96309.69;;;5.40;100.00
39937;BME280;27803;42.740;23.340;2022-12-18T01:31:56;96323.88;;;5.36;100.00
39937;BME280;27803;42.740;23.340;2022-12-18T01:34:22;96326.88;;;5.41;100.00
39937;BME280;27803;42.740;23.340;2022-12-18T01:36:48;96323.34;;;5.33;100.00
39937;BME280;27803;42.740;23.340;2022-12-18T01:39:14;96332.63;;;5.35;100.00
39937;BME280;27803;42.740;23.340;2022-12-18T01:41:40;96341.66;;;5.31;100.00
39937;BME280;27803;42.740;23.340;2022-12-18T01:50:02;96348.16;;;5.08;100.00
39937;BME280;27803;42.740;23.340;2022-12-18T01:52:29;96357.00;;;5.15;100.00
39937;BME280;27803;42.740;23.340;2022-12-18T01:54:56;96358.94;;;5.03;100.00
39937;BME280;27803;42.740;23.340;2022-12-18T01:57:23;96342.28;;;5.06;100.00
39937;BME280;27803;42.740;23.340;2022-12-18T01:59:52;96355.38;;;5.04;100.00
39937;BME280;27803;42.740;23.340;2022-12-18T02:02:20;96348.72;;;4.92;100.00
39937;BME280;27803;42.740;23.340;2022-12-18T02:04:46;96327.59;;;4.77;100.00
39937;BME280;27803;42.740;23.340;2022-12-18T02:07:20;96333.59;;;4.78;100.00
39937;BME280;27803;42.740;23.340;2022-12-18T02:12:39;96352.00;;;4.84;100.00
39937;BME280;27803;42.740;23.340;2022-12-18T02:15:39;96359.50;;;4.87;100.00
39937;BME280;27803;42.740;23.340;2022-12-18T02:18:28;96345.34;;;4.72;100.00
39937;BME280;27803;42.740;23.340;2022-12-18T02:28:45;96388.56;;;4.81;100.00
39937;BME280;27803;42.740;23.340;2022-12-18T02:31:16;96382.16;;;4.85;100.00
39937;BME280;27803;42.740;23.340;2022-12-18T02:33:44;96383.25;;;4.83;100.00
39937;BME280;27803;42.740;23.340;2022-12-18T02:36:12;96387.75;;;4.71;100.00
39937;BME280;27803;42.740;23.340;2022-12-18T02:38:41;96375.06;;;4.68;100.00
39937;BME280;27803;42.740;23.340;2022-12-18T02:41:07;96388.16;;;4.76;100.00
39937;BME280;27803;42.740;23.340;2022-12-18T02:43:32;96358.56;;;4.69;100.00
39937;BME280;27803;42.740;23.340;2022-12-18T02:46:00;96390.34;;;4.81;100.00
39937;BME280;27803;42.740;23.340;2022-12-18T02:48:32;96390.59;;;4.68;100.00
39937;BME280;27803;42.740;23.340;2022-12-18T02:51:26;96400.16;;;4.77;100.00
39937;BME280;27803;42.740;23.340;2022-12-18T02:54:03;96397.69;;;4.66;100.00
39937;BME280;27803;42.740;23.340;2022-12-18T02:56:36;96391.81;;;4.64;100.00
39937;BME280;27803;42.740;23.340;2022-12-18T02:59:24;96404.25;;;4.70;100.00
39937;BME280;27803;42.740;23.340;2022-12-18T03:04:27;96392.38;;;4.58;100.00
39937;BME280;27803;42.740;23.340;2022-12-18T03:06:57;96395.50;;;4.52;100.00
39937;BME280;27803;42.740;23.340;2022-12-18T03:09:36;96380.50;;;4.46;100.00
39937;BME280;27803;42.740;23.340;2022-12-18T03:12:18;96396.06;;;4.55;100.00
39937;BME280;27803;42.740;23.340;2022-12-18T03:17:38;96401.50;;;4.43;100.00
39937;BME280;27803;42.740;23.340;2022-12-18T03:20:12;96400.94;;;4.49;100.00
39937;BME280;27803;42.740;23.340;2022-12-18T03:22:41;96406.25;;;4.38;100.00
39937;BME280;27803;42.740;23.340;2022-12-18T03:25:12;96435.84;;;4.45;100.00
39937;BME280;27803;42.740;23.340;2022-12-18T03:27:42;96405.84;;;4.33;100.00
39937;BME280;27803;42.740;23.340;2022-12-18T03:30:11;96425.22;;;4.48;100.00
39937;BME280;27803;42.740;23.340;2022-12-18T03:35:14;96435.31;;;4.51;100.00
39937;BME280;27803;42.740;23.340;2022-12-18T03:37:41;96441.03;;;4.54;100.00
39937;BME280;27803;42.740;23.340;2022-12-18T03:40:07;96450.31;;;4.57;100.00
39937;BME280;27803;42.740;23.340;2022-12-18T03:42:58;96451.94;;;4.58;100.00
39937;BME280;27803;42.740;23.340;2022-12-18T03:45:33;96444.31;;;4.56;100.00
39937;BME280;27803;42.740;23.340;2022-12-18T03:48:13;96437.22;;;4.49;100.00
39937;BME280;27803;42.740;23.340;2022-12-18T03:55:59;96475.91;;;4.41;100.00
39937;BME280;27803;42.740;23.340;2022-12-18T03:58:27;96469.63;;;4.34;100.00
39937;BME280;27803;42.740;23.340;2022-12-18T04:00:56;96471.25;;;4.35;100.00
39937;BME280;27803;42.740;23.340;2022-12-18T04:03:25;96479.03;;;4.35;100.00
39937;BME280;27803;42.740;23.340;2022-12-18T04:05:54;96463.09;;;4.39;100.00
39937;BME280;27803;42.740;23.340;2022-12-18T04:08:21;96468.75;;;4.23;100.00
39937;BME280;27803;42.740;23.340;2022-12-18T04:10:47;96480.16;;;4.11;100.00
39937;BME280;27803;42.740;23.340;2022-12-18T04:13:21;96499.03;;;4.33;100.00
39937;BME280;27803;42.740;23.340;2022-12-18T04:15:47;96502.59;;;4.32;100.00
39937;BME280;27803;42.740;23.340;2022-12-18T04:18:12;96479.66;;;4.17;100.00
39937;BME280;27803;42.740;23.340;2022-12-18T04:20:38;96503.94;;;4.26;100.00
39937;BME280;27803;42.740;23.340;2022-12-18T04:23:03;96488.34;;;4.16;100.00
39937;BME280;27803;42.740;23.340;2022-12-18T04:25:29;96481.63;;;4.04;100.00
39937;BME280;27803;42.740;23.340;2022-12-18T04:27:54;96491.91;;;4.15;100.00
39937;BME280;27803;42.740;23.340;2022-12-18T04:30:19;96512.69;;;4.35;100.00
39937;BME280;27803;42.740;23.340;2022-12-18T04:32:45;96501.16;;;4.18;100.00
39937;BME280;27803;42.740;23.340;2022-12-18T04:35:10;96540.22;;;4.36;100.00
39937;BME280;27803;42.740;23.340;2022-12-18T04:37:37;96523.78;;;4.16;100.00
39937;BME280;27803;42.740;23.340;2022-12-18T04:40:03;96537.03;;;4.22;100.00
39937;BME280;27803;42.740;23.340;2022-12-18T04:42:28;96513.38;;;4.06;100.00
39937;BME280;27803;42.740;23.340;2022-12-18T04:44:53;96538.78;;;4.22;100.00
39937;BME280;27803;42.740;23.340;2022-12-18T04:47:19;96532.06;;;4.10;100.00
39937;BME280;27803;42.740;23.340;2022-12-18T04:49:44;96546.69;;;4.20;100.00
39937;BME280;27803;42.740;23.340;2022-12-18T04:52:09;96559.06;;;4.17;100.00
39937;BME280;27803;42.740;23.340;2022-12-18T04:54:35;96550.75;;;4.13;100.00
39937;BME280;27803;42.740;23.340;2022-12-18T04:57:00;96570.66;;;4.22;100.00
39937;BME280;27803;42.740;23.340;2022-12-18T04:59:26;96570.81;;;4.00;100.00
39937;BME280;27803;42.740;23.340;2022-12-18T05:01:51;96574.38;;;3.99;100.00
39937;BME280;27803;42.740;23.340;2022-12-18T05:04:16;96583.25;;;4.06;100.00
39937;BME280;27803;42.740;23.340;2022-12-18T05:06:42;96552.53;;;3.92;100.00
39937;BME280;27803;42.740;23.340;2022-12-18T05:09:07;96580.41;;;4.09;100.00
39937;BME280;27803;42.740;23.340;2022-12-18T05:11:33;96588.63;;;4.14;100.00
39937;BME280;27803;42.740;23.340;2022-12-18T05:13:58;96567.81;;;3.95;100.00
39937;BME280;27803;42.740;23.340;2022-12-18T05:16:23;96601.88;;;4.00;100.00
39937;BME280;27803;42.740;23.340;2022-12-18T05:18:49;96607.25;;;4.08;100.00
39937;BME280;27803;42.740;23.340;2022-12-18T05:21:14;96597.59;;;4.10;100.00
39937;BME280;27803;42.740;23.340;2022-12-18T05:23:39;96608.19;;;4.07;100.00
39937;BME280;27803;42.740;23.340;2022-12-18T05:26:06;96606.03;;;4.12;100.00
39937;BME280;27803;42.740;23.340;2022-12-18T05:28:33;96605.22;;;4.12;100.00
39937;BME280;27803;42.740;23.340;2022-12-18T05:31:00;96600.00;;;4.02;100.00
39937;BME280;27803;42.740;23.340;2022-12-18T05:33:30;96596.44;;;4.03;100.00
39937;BME280;27803;42.740;23.340;2022-12-18T05:35:58;96619.50;;;4.06;100.00
39937;BME280;27803;42.740;23.340;2022-12-18T05:38:28;96605.03;;;4.04;100.00
39937;BME280;27803;42.740;23.340;2022-12-18T05:40:54;96628.38;;;4.13;100.00
39937;BME280;27803;42.740;23.340;2022-12-18T05:43:20;96638.44;;;4.07;100.00
39937;BME280;27803;42.740;23.340;2022-12-18T05:45:50;96631.81;;;4.14;100.00
39937;BME280;27803;42.740;23.340;2022-12-18T05:48:16;96645.19;;;3.98;100.00
39937;BME280;27803;42.740;23.340;2022-12-18T05:50:43;96640.63;;;4.11;100.00
39937;BME280;27803;42.740;23.340;2022-12-18T05:53:11;96650.09;;;4.01;100.00
39937;BME280;27803;42.740;23.340;2022-12-18T05:55:38;96643.78;;;3.94;100.00
39937;BME280;27803;42.740;23.340;2022-12-18T05:58:06;96628.50;;;3.91;100.00
39937;BME280;27803;42.740;23.340;2022-12-18T06:00:34;96658.56;;;4.03;100.00
39937;BME280;27803;42.740;23.340;2022-12-18T06:03:00;96647.06;;;3.96;100.00
39937;BME280;27803;42.740;23.340;2022-12-18T06:05:26;96654.63;;;3.88;100.00
39937;BME280;27803;42.740;23.340;2022-12-18T06:07:52;96662.03;;;3.92;100.00
39937;BME280;27803;42.740;23.340;2022-12-18T06:10:18;96663.09;;;3.90;100.00
39937;BME280;27803;42.740;23.340;2022-12-18T06:12:43;96668.78;;;3.84;100.00
39937;BME280;27803;42.740;23.340;2022-12-18T06:15:09;96654.88;;;3.85;100.00
39937;BME280;27803;42.740;23.340;2022-12-18T06:17:36;96664.28;;;3.86;100.00
39937;BME280;27803;42.740;23.340;2022-12-18T06:20:03;96675.09;;;3.91;100.00
39937;BME280;27803;42.740;23.340;2022-12-18T06:22:31;96674.75;;;3.84;100.00
39937;BME280;27803;42.740;23.340;2022-12-18T06:24:57;96681.00;;;3.82;100.00
39937;BME280;27803;42.740;23.340;2022-12-18T06:27:22;96688.81;;;3.71;100.00
39937;BME280;27803;42.740;23.340;2022-12-18T06:29:48;96674.59;;;3.65;100.00
39937;BME280;27803;42.740;23.340;2022-12-18T06:32:13;96699.84;;;3.73;100.00
39937;BME280;27803;42.740;23.340;2022-12-18T06:34:38;96687.88;;;3.72;100.00
39937;BME280;27803;42.740;23.340;2022-12-18T06:37:04;96693.25;;;3.80;100.00
39937;BME280;27803;42.740;23.340;2022-12-18T06:39:29;96693.94;;;3.82;100.00
39937;BME280;27803;42.740;23.340;2022-12-18T06:41:55;96712.53;;;3.76;100.00
39937;BME280;27803;42.740;23.340;2022-12-18T06:44:20;96710.41;;;3.81;100.00
39937;BME280;27803;42.740;23.340;2022-12-18T06:46:45;96710.75;;;3.87;100.00
39937;BME280;27803;42.740;23.340;2022-12-18T06:49:11;96711.56;;;3.88;100.00
39937;BME280;27803;42.740;23.340;2022-12-18T06:51:37;96719.06;;;3.91;100.00
39937;BME280;27803;42.740;23.340;2022-12-18T06:54:02;96724.28;;;3.80;100.00
39937;BME280;27803;42.740;23.340;2022-12-18T06:56:28;96741.25;;;3.73;100.00
39937;BME280;27803;42.740;23.340;2022-12-18T06:58:53;96732.28;;;3.77;100.00
39937;BME280;27803;42.740;23.340;2022-12-18T07:01:20;96714.44;;;3.74;100.00
39937;BME280;27803;42.740;23.340;2022-12-18T07:03:45;96713.28;;;3.67;100.00
39937;BME280;27803;42.740;23.340;2022-12-18T07:06:17;96723.72;;;3.76;100.00
39937;BME280;27803;42.740;23.340;2022-12-18T07:08:43;96711.41;;;3.57;100.00
39937;BME280;27803;42.740;23.340;2022-12-18T07:11:09;96729.00;;;3.75;100.00
39937;BME280;27803;42.740;23.340;2022-12-18T07:13:34;96730.91;;;3.73;100.00
39937;BME280;27803;42.740;23.340;2022-12-18T07:16:14;96721.50;;;3.72;100.00
39937;BME280;27803;42.740;23.340;2022-12-18T07:18:39;96742.19;;;3.72;100.00
39937;BME280;27803;42.740;23.340;2022-12-18T07:21:07;96714.34;;;3.64;100.00
39937;BME280;27803;42.740;23.340;2022-12-18T07:23:34;96752.97;;;3.88;100.00
39937;BME280;27803;42.740;23.340;2022-12-18T07:26:11;96749.34;;;3.79;100.00
39937;BME280;27803;42.740;23.340;2022-12-18T07:28:38;96734.41;;;3.83;100.00
39937;BME280;27803;42.740;23.340;2022-12-18T07:31:09;96752.38;;;3.84;100.00
39937;BME280;27803;42.740;23.340;2022-12-18T07:33:35;96756.97;;;3.81;100.00
39937;BME280;27803;42.740;23.340;2022-12-18T07:36:05;96771.09;;;3.77;100.00
39937;BME280;27803;42.740;23.340;2022-12-18T07:38:32;96753.44;;;3.82;100.00
39937;BME280;27803;42.740;23.340;2022-12-18T07:41:02;96759.69;;;3.79;100.00
39937;BME280;27803;42.740;23.340;2022-12-18T07:43:28;96767.81;;;3.75;100.00
39937;BME280;27803;42.740;23.340;2022-12-18T07:45:54;96767.53;;;3.89;100.00
39937;BME280;27803;42.740;23.340;2022-12-18T07:48:20;96767.13;;;3.73;100.00
39937;BME280;27803;42.740;23.340;2022-12-18T07:50:45;96769.94;;;3.70;100.00
39937;BME280;27803;42.740;23.340;2022-12-18T07:53:10;96762.97;;;3.81;100.00
39937;BME280;27803;42.740;23.340;2022-12-18T07:55:36;96758.88;;;3.79;100.00
39937;BME280;27803;42.740;23.340;2022-12-18T07:58:03;96762.41;;;3.78;100.00
39937;BME280;27803;42.740;23.340;2022-12-18T08:00:29;96778.16;;;3.75;100.00
39937;BME280;27803;42.740;23.340;2022-12-18T08:02:54;96780.38;;;3.79;100.00
39937;BME280;27803;42.740;23.340;2022-12-18T08:05:20;96800.97;;;3.70;100.00
39937;BME280;27803;42.740;23.340;2022-12-18T08:07:46;96775.13;;;3.70;100.00
39937;BME280;27803;42.740;23.340;2022-12-18T08:10:11;96788.47;;;3.86;100.00
39937;BME280;27803;42.740;23.340;2022-12-18T08:12:36;96782.38;;;3.87;100.00
39937;BME280;27803;42.740;23.340;2022-12-18T08:15:02;96796.72;;;3.80;100.00
39937;BME280;27803;42.740;23.340;2022-12-18T08:17:27;96790.25;;;3.85;100.00
39937;BME280;27803;42.740;23.340;2022-12-18T08:19:53;96807.41;;;3.86;100.00
39937;BME280;27803;42.740;23.340;2022-12-18T08:22:18;96812.56;;;3.98;100.00
39937;BME280;27803;42.740;23.340;2022-12-18T08:24:44;96817.59;;;4.10;100.00
39937;BME280;27803;42.740;23.340;2022-12-18T08:27:10;96813.59;;;4.06;100.00
39937;BME280;27803;42.740;23.340;2022-12-18T08:29:36;96803.75;;;4.00;100.00
39937;BME280;27803;42.740;23.340;2022-12-18T08:32:01;96782.16;;;3.68;100.00
39937;BME280;27803;42.740;23.340;2022-12-18T08:34:26;96800.44;;;3.98;100.00
39937;BME280;27803;42.740;23.340;2022-12-18T08:36:52;96824.63;;;4.19;100.00
39937;BME280;27803;42.740;23.340;2022-12-18T08:39:17;96811.97;;;4.05;100.00
39937;BME280;27803;42.740;23.340;2022-12-18T08:41:42;96823.06;;;4.28;100.00
39937;BME280;27803;42.740;23.340;2022-12-18T08:44:28;96808.44;;;4.06;100.00
39937;BME280;27803;42.740;23.340;2022-12-18T08:47:02;96805.63;;;3.98;100.00
39937;BME280;27803;42.740;23.340;2022-12-18T08:49:28;96838.50;;;4.18;100.00
39937;BME280;27803;42.740;23.340;2022-12-18T08:51:54;96842.97;;;4.28;100.00
39937;BME280;27803;42.740;23.340;2022-12-18T08:54:20;96845.59;;;4.16;100.00
39937;BME280;27803;42.740;23.340;2022-12-18T08:56:45;96851.91;;;4.23;100.00
39937;BME280;27803;42.740;23.340;2022-12-18T08:59:11;96843.66;;;4.30;100.00
39937;BME280;27803;42.740;23.340;2022-12-18T09:01:36;96842.03;;;4.17;100.00
39937;BME280;27803;42.740;23.340;2022-12-18T09:04:02;96833.50;;;4.06;100.00
39937;BME280;27803;42.740;23.340;2022-12-18T09:06:27;96840.66;;;4.13;100.00
39937;BME280;27803;42.740;23.340;2022-12-18T09:08:53;96819.47;;;4.08;100.00
39937;BME280;27803;42.740;23.340;2022-12-18T09:11:23;96844.84;;;4.25;100.00
39937;BME280;27803;42.740;23.340;2022-12-18T09:13:49;96827.72;;;4.02;100.00
39937;BME280;27803;42.740;23.340;2022-12-18T09:16:15;96838.28;;;4.21;100.00
39937;BME280;27803;42.740;23.340;2022-12-18T09:18:41;96849.13;;;4.15;100.00
39937;BME280;27803;42.740;23.340;2022-12-18T09:21:14;96848.22;;;4.37;100.00
39937;BME280;27803;42.740;23.340;2022-12-18T09:23:40;96834.16;;;4.19;100.00
39937;BME280;27803;42.740;23.340;2022-12-18T09:26:06;96833.50;;;4.38;100.00
39937;BME280;27803;42.740;23.340;2022-12-18T09:28:32;96836.50;;;4.54;100.00
39937;BME280;27803;42.740;23.340;2022-12-18T09:30:57;96840.38;;;4.60;100.00
39937;BME280;27803;42.740;23.340;2022-12-18T09:33:23;96821.25;;;4.40;100.00
39937;BME280;27803;42.740;23.340;2022-12-18T09:35:49;96831.63;;;4.40;100.00
39937;BME280;27803;42.740;23.340;2022-12-18T09:38:17;96844.28;;;4.54;100.00
39937;BME280;27803;42.740;23.340;2022-12-18T09:40:45;96840.50;;;4.58;100.00
39937;BME280;27803;42.740;23.340;2022-12-18T09:43:28;96841.16;;;4.71;100.00
39937;BME280;27803;42.740;23.340;2022-12-18T09:46:00;96848.53;;;4.76;100.00
39937;BME280;27803;42.740;23.340;2022-12-18T09:48:40;96832.44;;;4.72;100.00
39937;BME280;27803;42.740;23.340;2022-12-18T09:51:19;96833.31;;;4.82;100.00
39937;BME280;27803;42.740;23.340;2022-12-18T09:53:53;96822.81;;;4.63;100.00
39937;BME280;27803;42.740;23.340;2022-12-18T09:56:21;96831.16;;;4.87;100.00
39937;BME280;27803;42.740;23.340;2022-12-18T10:01:18;96860.50;;;4.88;100.00
39937;BME280;27803;42.740;23.340;2022-12-18T10:03:45;96852.97;;;4.85;100.00
39937;BME280;27803;42.740;23.340;2022-12-18T10:06:20;96844.44;;;4.94;100.00
39937;BME280;27803;42.740;23.340;2022-12-18T10:09:19;96846.72;;;4.87;100.00
39937;BME280;27803;42.740;23.340;2022-12-18T10:22:56;96843.00;;;5.01;100.00
39937;BME280;27803;42.740;23.340;2022-12-18T10:28:00;96853.75;;;5.27;100.00
39937;BME280;27803;42.740;23.340;2022-12-18T10:30:29;96851.00;;;5.19;100.00
39937;BME280;27803;42.740;23.340;2022-12-18T10:33:00;96844.75;;;5.31;100.00
39937;BME280;27803;42.740;23.340;2022-12-18T10:35:26;96821.09;;;5.15;100.00
39937;BME280;27803;42.740;23.340;2022-12-18T10:40:56;96849.25;;;5.29;100.00
39937;BME280;27803;42.740;23.340;2022-12-18T10:43:27;96851.81;;;5.19;100.00
39937;BME280;27803;42.740;23.340;2022-12-18T10:48:52;96848.41;;;5.49;100.00
39937;BME280;27803;42.740;23.340;2022-12-18T10:51:28;96849.00;;;5.63;100.00
39937;BME280;27803;42.740;23.340;2022-12-18T10:54:05;96837.97;;;5.40;100.00
39937;BME280;27803;42.740;23.340;2022-12-18T10:56:34;96853.06;;;5.55;100.00
39937;BME280;27803;42.740;23.340;2022-12-18T10:59:03;96824.38;;;5.47;100.00
39937;BME280;27803;42.740;23.340;2022-12-18T11:01:45;96838.63;;;5.63;100.00
39937;BME280;27803;42.740;23.340;2022-12-18T11:04:17;96844.84;;;5.50;100.00
39937;BME280;27803;42.740;23.340;2022-12-18T11:07:04;96846.19;;;5.45;100.00
39937;BME280;27803;42.740;23.340;2022-12-18T11:09:32;96853.75;;;5.27;100.00
39937;BME280;27803;42.740;23.340;2022-12-18T11:12:00;96859.56;;;5.40;100.00
39937;BME280;27803;42.740;23.340;2022-12-18T11:14:29;96844.00;;;5.40;100.00
39937;BME280;27803;42.740;23.340;2022-12-18T11:16:57;96843.03;;;5.41;100.00
39937;BME280;27803;42.740;23.340;2022-12-18T11:19:35;96831.44;;;5.45;100.00
39937;BME280;27803;42.740;23.340;2022-12-18T11:22:18;96842.66;;;5.46;100.00
39937;BME280;27803;42.740;23.340;2022-12-18T11:24:53;96850.53;;;5.65;100.00
39937;BME280;27803;42.740;23.340;2022-12-18T11:27:20;96831.53;;;5.34;100.00
39937;BME280;27803;42.740;23.340;2022-12-18T11:29:49;96858.94;;;5.57;100.00
39937;BME280;27803;42.740;23.340;2022-12-18T11:32:24;96865.88;;;5.47;100.00
39937;BME280;27803;42.740;23.340;2022-12-18T11:35:03;96858.53;;;5.52;100.00
39937;BME280;27803;42.740;23.340;2022-12-18T11:37:31;96854.47;;;5.60;100.00
39937;BME280;27803;42.740;23.340;2022-12-18T11:40:05;96850.75;;;5.52;100.00
39937;BME280;27803;42.740;23.340;2022-12-18T11:42:39;96824.72;;;5.33;100.00
39937;BME280;27803;42.740;23.340;2022-12-18T11:50:56;96855.31;;;5.70;100.00
39937;BME280;27803;42.740;23.340;2022-12-18T11:53:25;96854.38;;;5.71;100.00
39937;BME280;27803;42.740;23.340;2022-12-18T12:01:54;96855.91;;;5.83;100.00
39937;BME280;27803;42.740;23.340;2022-12-18T12:23:44;96853.88;;;5.86;100.00
39937;BME280;27803;42.740;23.340;2022-12-18T12:34:24;96871.22;;;5.86;100.00
39937;BME280;27803;42.740;23.340;2022-12-18T12:39:36;96858.94;;;5.88;100.00
39937;BME280;27803;42.740;23.340;2022-12-18T12:42:12;96879.47;;;5.91;100.00
39937;BME280;27803;42.740;23.340;2022-12-18T12:45:02;96860.84;;;5.86;100.00
39937;BME280;27803;42.740;23.340;2022-12-18T12:47:33;96862.75;;;5.84;100.00
39937;BME280;27803;42.740;23.340;2022-12-18T12:50:05;96853.03;;;5.76;100.00
39937;BME280;27803;42.740;23.340;2022-12-18T12:52:43;96857.47;;;5.65;100.00
39937;BME280;27803;42.740;23.340;2022-12-18T12:55:20;96857.47;;;5.65;100.00
39937;BME280;27803;42.740;23.340;2022-12-18T13:01:07;96865.09;;;5.56;100.00
39937;BME280;27803;42.740;23.340;2022-12-18T13:03:46;96870.19;;;5.37;100.00
39937;BME280;27803;42.740;23.340;2022-12-18T13:09:00;96878.72;;;5.49;100.00
39937;BME280;27803;42.740;23.340;2022-12-18T13:14:45;96880.31;;;5.40;100.00
39937;BME280;27803;42.740;23.340;2022-12-18T13:17:14;96874.13;;;5.32;100.00
39937;BME280;27803;42.740;23.340;2022-12-18T13:19:41;96889.28;;;5.36;100.00
39937;BME280;27803;42.740;23.340;2022-12-18T13:22:24;96889.72;;;5.41;100.00
39937;BME280;27803;42.740;23.340;2022-12-18T13:24:50;96891.25;;;5.23;100.00
39937;BME280;27803;42.740;23.340;2022-12-18T13:35:41;96893.09;;;5.32;100.00
39937;BME280;27803;42.740;23.340;2022-12-18T13:38:21;96886.63;;;5.17;100.00
39937;BME280;27803;42.740;23.340;2022-12-18T13:48:23;96887.13;;;5.11;100.00
39937;BME280;27803;42.740;23.340;2022-12-18T13:50:56;96915.00;;;4.98;100.00
39937;BME280;27803;42.740;23.340;2022-12-18T13:53:26;96906.41;;;4.97;100.00
39937;BME280;27803;42.740;23.340;2022-12-18T13:55:54;96927.25;;;4.96;100.00
39937;BME280;27803;42.740;23.340;2022-12-18T13:58:19;96917.97;;;4.93;100.00
39937;BME280;27803;42.740;23.340;2022-12-18T14:00:45;96949.66;;;4.97;100.00
39937;BME280;27803;42.740;23.340;2022-12-18T14:03:28;96928.66;;;5.00;100.00
39937;BME280;27803;42.740;23.340;2022-12-18T14:05:58;96947.34;;;4.82;100.00
39937;BME280;27803;42.740;23.340;2022-12-18T14:08:25;96912.00;;;4.81;100.00
39937;BME280;27803;42.740;23.340;2022-12-18T14:10:52;96940.91;;;4.98;100.00
39937;BME280;27803;42.740;23.340;2022-12-18T14:13:28;96943.25;;;5.01;100.00
39937;BME280;27803;42.740;23.340;2022-12-18T14:15:55;96944.94;;;4.90;100.00
39937;BME280;27803;42.740;23.340;2022-12-18T14:18:24;96956.38;;;4.88;100.00
39937;BME280;27803;42.740;23.340;2022-12-18T14:20:53;96941.00;;;4.75;100.00
39937;BME280;27803;42.740;23.340;2022-12-18T14:23:37;96914.84;;;4.78;100.00
39937;BME280;27803;42.740;23.340;2022-12-18T14:26:20;96921.66;;;4.79;100.00
39937;BME280;27803;42.740;23.340;2022-12-18T14:28:47;96935.97;;;4.95;100.00
39937;BME280;27803;42.740;23.340;2022-12-18T14:31:20;96919.59;;;4.94;100.00
39937;BME280;27803;42.740;23.340;2022-12-18T14:33:46;96946.59;;;4.92;100.00
39937;BME280;27803;42.740;23.340;2022-12-18T14:36:16;96953.19;;;4.96;100.00
39937;BME280;27803;42.740;23.340;2022-12-18T14:38:42;96938.44;;;4.64;100.00
39937;BME280;27803;42.740;23.340;2022-12-18T14:41:15;96937.91;;;4.81;100.00
39937;BME280;27803;42.740;23.340;2022-12-18T14:43:43;96965.00;;;4.88;100.00
39937;BME280;27803;42.740;23.340;2022-12-18T14:46:37;96951.69;;;4.82;100.00
39937;BME280;27803;42.740;23.340;2022-12-18T14:49:04;96930.47;;;4.56;100.00
39937;BME280;27803;42.740;23.340;2022-12-18T14:51:32;96960.56;;;4.68;100.00
39937;BME280;27803;42.740;23.340;2022-12-18T14:54:03;96962.56;;;4.76;100.00
39937;BME280;27803;42.740;23.340;2022-12-18T14:56:41;96965.31;;;4.63;100.00
39937;BME280;27803;42.740;23.340;2022-12-18T14:59:22;96949.44;;;4.45;100.00